sensor_id;sensor_type;location;lat;lon;timestamp;temperature;humidity
584;HTU21D;27024;54.068;12.116;2024-01-15T00:00:29;0.23;118.99
584;HTU21D;27024;54.068;12.116;2024-01-15T00:02:57;0.30;118.99
584;HTU21D;27024;54.068;12.116;2024-01-15T00:05:24;0.30;118.99
584;HTU21D;27024;54.068;12.116;2024-01-15T00:07:51;0.27;118.99
584;HTU21D;27024;54.068;12.116;2024-01-15T00:10:18;0.29;118.99
584;HTU21D;27024;54.068;12.116;2024-01-15T00:12:45;0.37;118.99
584;HTU21D;27024;54.068;12.116;2024-01-15T00:15:12;0.38;118.99
584;HTU21D;27024;54.068;12.116;2024-01-15T00:17:39;0.33;118.99
584;HTU21D;27024;54.068;12.116;2024-01-15T00:20:06;0.35;118.99
584;HTU21D;27024;54.068;12.116;2024-01-15T00:22:33;0.34;118.99
584;HTU21D;27024;54.068;12.116;2024-01-15T00:25:03;0.38;118.99
584;HTU21D;27024;54.068;12.116;2024-01-15T00:27:30;0.42;118.99
584;HTU21D;27024;54.068;12.116;2024-01-15T00:29:57;0.44;118.99
584;HTU21D;27024;54.068;12.116;2024-01-15T00:32:24;0.49;118.99
584;HTU21D;27024;54.068;12.116;2024-01-15T00:34:51;0.50;118.99
584;HTU21D;27024;54.068;12.116;2024-01-15T00:37:18;0.49;118.99
584;HTU21D;27024;54.068;12.116;2024-01-15T00:39:45;0.57;118.99
584;HTU21D;27024;54.068;12.116;2024-01-15T00:42:13;0.52;118.99
584;HTU21D;27024;54.068;12.116;2024-01-15T00:44:40;0.62;118.99
584;HTU21D;27024;54.068;12.116;2024-01-15T00:47:07;0.64;118.99
584;HTU21D;27024;54.068;12.116;2024-01-15T00:49:34;0.63;118.99
584;HTU21D;27024;54.068;12.116;2024-01-15T00:52:01;0.69;118.99
584;HTU21D;27024;54.068;12.116;2024-01-15T00:54:28;0.65;118.99
584;HTU21D;27024;54.068;12.116;2024-01-15T00:56:55;0.71;118.99
584;HTU21D;27024;54.068;12.116;2024-01-15T00:59:22;0.71;118.99
584;HTU21D;27024;54.068;12.116;2024-01-15T01:01:49;0.67;118.99
584;HTU21D;27024;54.068;12.116;2024-01-15T01:04:16;0.75;118.99
584;HTU21D;27024;54.068;12.116;2024-01-15T01:06:43;0.75;118.99
584;HTU21D;27024;54.068;12.116;2024-01-15T01:09:10;0.78;118.99
584;HTU21D;27024;54.068;12.116;2024-01-15T01:11:37;0.86;118.99
584;HTU21D;27024;54.068;12.116;2024-01-15T01:14:05;0.91;118.99
584;HTU21D;27024;54.068;12.116;2024-01-15T01:16:32;0.92;118.99
584;HTU21D;27024;54.068;12.116;2024-01-15T01:19:05;0.98;118.99
584;HTU21D;27024;54.068;12.116;2024-01-15T01:21:34;0.95;118.99
584;HTU21D;27024;54.068;12.116;2024-01-15T01:24:01;1.03;118.99
584;HTU21D;27024;54.068;12.116;2024-01-15T01:26:28;1.08;118.99
584;HTU21D;27024;54.068;12.116;2024-01-15T01:28:55;1.13;118.99
584;HTU21D;27024;54.068;12.116;2024-01-15T01:31:23;1.07;118.99
584;HTU21D;27024;54.068;12.116;2024-01-15T01:33:50;0.90;118.99
584;HTU21D;27024;54.068;12.116;2024-01-15T01:36:18;0.65;118.99
584;HTU21D;27024;54.068;12.116;2024-01-15T01:38:45;0.50;118.99
584;HTU21D;27024;54.068;12.116;2024-01-15T01:41:12;0.45;118.99
584;HTU21D;27024;54.068;12.116;2024-01-15T01:43:39;0.47;118.99
584;HTU21D;27024;54.068;12.116;2024-01-15T01:46:06;0.43;118.99
584;HTU21D;27024;54.068;12.116;2024-01-15T01:48:35;0.44;118.99
584;HTU21D;27024;54.068;12.116;2024-01-15T01:51:03;0.50;118.99
584;HTU21D;27024;54.068;12.116;2024-01-15T01:53:33;0.58;118.99
584;HTU21D;27024;54.068;12.116;2024-01-15T01:56:02;0.59;118.99
584;HTU21D;27024;54.068;12.116;2024-01-15T01:58:30;0.48;118.99
584;HTU21D;27024;54.068;12.116;2024-01-15T02:00:59;0.48;118.99
584;HTU21D;27024;54.068;12.116;2024-01-15T02:03:27;0.38;118.99
584;HTU21D;27024;54.068;12.116;2024-01-15T02:05:56;0.33;118.99
584;HTU21D;27024;54.068;12.116;2024-01-15T02:08:23;0.37;118.99
584;HTU21D;27024;54.068;12.116;2024-01-15T02:10:50;0.43;118.99
584;HTU21D;27024;54.068;12.116;2024-01-15T02:13:18;0.43;118.99
584;HTU21D;27024;54.068;12.116;2024-01-15T02:15:45;0.45;118.99
584;HTU21D;27024;54.068;12.116;2024-01-15T02:18:12;0.53;118.99
584;HTU21D;27024;54.068;12.116;2024-01-15T02:20:39;0.52;118.99
584;HTU21D;27024;54.068;12.116;2024-01-15T02:23:11;0.53;118.99
584;HTU21D;27024;54.068;12.116;2024-01-15T02:25:43;0.57;118.99
584;HTU21D;27024;54.068;12.116;2024-01-15T02:28:13;0.69;118.99
584;HTU21D;27024;54.068;12.116;2024-01-15T02:30:41;0.77;118.99
584;HTU21D;27024;54.068;12.116;2024-01-15T02:33:10;0.84;118.99
584;HTU21D;27024;54.068;12.116;2024-01-15T02:35:38;0.83;118.99
584;HTU21D;27024;54.068;12.116;2024-01-15T02:38:05;0.88;118.99
584;HTU21D;27024;54.068;12.116;2024-01-15T02:40:33;0.92;118.99
584;HTU21D;27024;54.068;12.116;2024-01-15T02:43:00;0.87;118.99
584;HTU21D;27024;54.068;12.116;2024-01-15T02:45:27;0.83;118.99
584;HTU21D;27024;54.068;12.116;2024-01-15T02:47:54;0.76;118.99
584;HTU21D;27024;54.068;12.116;2024-01-15T02:50:22;0.80;118.99
584;HTU21D;27024;54.068;12.116;2024-01-15T02:52:49;0.83;118.99
584;HTU21D;27024;54.068;12.116;2024-01-15T02:55:16;0.87;118.99
584;HTU21D;27024;54.068;12.116;2024-01-15T02:57:43;0.88;118.99
584;HTU21D;27024;54.068;12.116;2024-01-15T03:00:10;1.04;118.99
584;HTU21D;27024;54.068;12.116;2024-01-15T03:02:39;0.94;118.99
584;HTU21D;27024;54.068;12.116;2024-01-15T03:05:11;0.99;118.99
584;HTU21D;27024;54.068;12.116;2024-01-15T03:07:38;1.02;118.99
584;HTU21D;27024;54.068;12.116;2024-01-15T03:10:06;0.99;118.99
584;HTU21D;27024;54.068;12.116;2024-01-15T03:12:33;1.10;118.99
584;HTU21D;27024;54.068;12.116;2024-01-15T03:15:01;1.05;118.99
584;HTU21D;27024;54.068;12.116;2024-01-15T03:17:28;1.05;118.99
584;HTU21D;27024;54.068;12.116;2024-01-15T03:19:55;1.10;118.99
584;HTU21D;27024;54.068;12.116;2024-01-15T03:22:22;1.16;118.99
584;HTU21D;27024;54.068;12.116;2024-01-15T03:24:49;1.14;118.99
584;HTU21D;27024;54.068;12.116;2024-01-15T03:27:16;1.13;118.99
584;HTU21D;27024;54.068;12.116;2024-01-15T03:29:45;1.09;118.99
584;HTU21D;27024;54.068;12.116;2024-01-15T03:32:12;1.20;118.99
584;HTU21D;27024;54.068;12.116;2024-01-15T03:34:39;1.17;118.99
584;HTU21D;27024;54.068;12.116;2024-01-15T03:37:06;1.17;118.99
584;HTU21D;27024;54.068;12.116;2024-01-15T03:39:33;1.27;118.99
584;HTU21D;27024;54.068;12.116;2024-01-15T03:42:01;1.26;118.99
584;HTU21D;27024;54.068;12.116;2024-01-15T03:44:28;1.31;118.99
584;HTU21D;27024;54.068;12.116;2024-01-15T03:46:55;1.23;118.99
584;HTU21D;27024;54.068;12.116;2024-01-15T03:49:22;1.25;118.99
584;HTU21D;27024;54.068;12.116;2024-01-15T03:51:49;1.35;118.99
584;HTU21D;27024;54.068;12.116;2024-01-15T03:54:16;1.29;118.99
584;HTU21D;27024;54.068;12.116;2024-01-15T03:56:46;1.26;118.99
584;HTU21D;27024;54.068;12.116;2024-01-15T03:59:13;1.35;118.99
584;HTU21D;27024;54.068;12.116;2024-01-15T04:01:40;1.38;118.99
584;HTU21D;27024;54.068;12.116;2024-01-15T04:04:07;1.46;118.99
584;HTU21D;27024;54.068;12.116;2024-01-15T04:06:34;1.45;118.99
584;HTU21D;27024;54.068;12.116;2024-01-15T04:09:02;1.47;118.99
584;HTU21D;27024;54.068;12.116;2024-01-15T04:11:29;1.47;118.99
584;HTU21D;27024;54.068;12.116;2024-01-15T04:13:56;1.49;118.99
584;HTU21D;27024;54.068;12.116;2024-01-15T04:16:23;1.61;118.99
584;HTU21D;27024;54.068;12.116;2024-01-15T04:18:50;1.48;118.99
584;HTU21D;27024;54.068;12.116;2024-01-15T04:21:17;1.52;118.99
584;HTU21D;27024;54.068;12.116;2024-01-15T04:23:45;1.47;118.99
584;HTU21D;27024;54.068;12.116;2024-01-15T04:26:12;1.37;118.99
584;HTU21D;27024;54.068;12.116;2024-01-15T04:28:39;1.29;118.99
584;HTU21D;27024;54.068;12.116;2024-01-15T04:31:07;1.28;118.99
584;HTU21D;27024;54.068;12.116;2024-01-15T04:33:34;1.26;118.99
584;HTU21D;27024;54.068;12.116;2024-01-15T04:36:04;1.24;118.99
584;HTU21D;27024;54.068;12.116;2024-01-15T04:38:32;1.25;118.99
584;HTU21D;27024;54.068;12.116;2024-01-15T04:41:00;1.18;118.99
584;HTU21D;27024;54.068;12.116;2024-01-15T04:43:26;1.23;118.99
584;HTU21D;27024;54.068;12.116;2024-01-15T04:45:53;1.25;118.99
584;HTU21D;27024;54.068;12.116;2024-01-15T04:48:21;1.29;118.99
584;HTU21D;27024;54.068;12.116;2024-01-15T04:50:49;1.37;118.99
584;HTU21D;27024;54.068;12.116;2024-01-15T04:53:17;1.38;118.99
584;HTU21D;27024;54.068;12.116;2024-01-15T04:55:47;1.52;118.99
584;HTU21D;27024;54.068;12.116;2024-01-15T04:58:14;1.48;118.99
584;HTU21D;27024;54.068;12.116;2024-01-15T05:00:44;1.50;118.99
584;HTU21D;27024;54.068;12.116;2024-01-15T05:03:11;1.60;118.99
584;HTU21D;27024;54.068;12.116;2024-01-15T05:05:38;1.61;118.99
584;HTU21D;27024;54.068;12.116;2024-01-15T05:08:05;1.58;118.99
584;HTU21D;27024;54.068;12.116;2024-01-15T05:10:32;1.56;118.99
584;HTU21D;27024;54.068;12.116;2024-01-15T05:13:00;1.60;118.99
584;HTU21D;27024;54.068;12.116;2024-01-15T05:15:32;1.58;118.99
584;HTU21D;27024;54.068;12.116;2024-01-15T05:17:59;1.51;118.99
584;HTU21D;27024;54.068;12.116;2024-01-15T05:20:26;1.57;118.99
584;HTU21D;27024;54.068;12.116;2024-01-15T05:22:53;1.55;118.99
584;HTU21D;27024;54.068;12.116;2024-01-15T05:25:20;1.66;118.99
584;HTU21D;27024;54.068;12.116;2024-01-15T05:27:47;1.98;118.99
584;HTU21D;27024;54.068;12.116;2024-01-15T05:30:14;1.78;118.99
584;HTU21D;27024;54.068;12.116;2024-01-15T05:32:42;1.66;118.99
584;HTU21D;27024;54.068;12.116;2024-01-15T05:35:09;1.79;118.99
584;HTU21D;27024;54.068;12.116;2024-01-15T05:37:36;1.80;118.99
584;HTU21D;27024;54.068;12.116;2024-01-15T05:40:03;1.84;118.99
584;HTU21D;27024;54.068;12.116;2024-01-15T05:42:31;1.84;118.99
584;HTU21D;27024;54.068;12.116;2024-01-15T05:44:59;1.77;118.99
584;HTU21D;27024;54.068;12.116;2024-01-15T05:47:26;1.91;118.99
584;HTU21D;27024;54.068;12.116;2024-01-15T05:49:54;1.98;118.99
584;HTU21D;27024;54.068;12.116;2024-01-15T05:52:21;1.85;118.99
584;HTU21D;27024;54.068;12.116;2024-01-15T05:54:49;1.81;118.99
584;HTU21D;27024;54.068;12.116;2024-01-15T05:57:16;1.93;118.99
584;HTU21D;27024;54.068;12.116;2024-01-15T05:59:44;1.84;118.99
584;HTU21D;27024;54.068;12.116;2024-01-15T06:02:12;1.88;118.99
584;HTU21D;27024;54.068;12.116;2024-01-15T06:04:39;1.84;118.99
584;HTU21D;27024;54.068;12.116;2024-01-15T06:07:06;1.80;118.99
584;HTU21D;27024;54.068;12.116;2024-01-15T06:09:33;1.78;118.99
584;HTU21D;27024;54.068;12.116;2024-01-15T06:12:00;1.71;118.99
584;HTU21D;27024;54.068;12.116;2024-01-15T06:14:26;1.67;118.99
584;HTU21D;27024;54.068;12.116;2024-01-15T06:16:53;1.76;118.99
584;HTU21D;27024;54.068;12.116;2024-01-15T06:19:20;1.87;118.99
584;HTU21D;27024;54.068;12.116;2024-01-15T06:21:47;2.00;118.99
584;HTU21D;27024;54.068;12.116;2024-01-15T06:24:15;2.11;118.99
584;HTU21D;27024;54.068;12.116;2024-01-15T06:26:42;2.02;118.99
584;HTU21D;27024;54.068;12.116;2024-01-15T06:29:09;2.14;118.99
584;HTU21D;27024;54.068;12.116;2024-01-15T06:31:36;2.24;118.99
584;HTU21D;27024;54.068;12.116;2024-01-15T06:34:03;2.13;118.99
584;HTU21D;27024;54.068;12.116;2024-01-15T06:36:30;2.13;118.99
584;HTU21D;27024;54.068;12.116;2024-01-15T06:38:57;2.10;118.99
584;HTU21D;27024;54.068;12.116;2024-01-15T06:41:24;2.05;118.99
584;HTU21D;27024;54.068;12.116;2024-01-15T06:43:52;2.07;118.99
584;HTU21D;27024;54.068;12.116;2024-01-15T06:46:20;2.08;118.99
584;HTU21D;27024;54.068;12.116;2024-01-15T06:48:48;2.02;118.99
584;HTU21D;27024;54.068;12.116;2024-01-15T06:51:16;1.94;118.99
584;HTU21D;27024;54.068;12.116;2024-01-15T06:53:43;2.01;118.99
584;HTU21D;27024;54.068;12.116;2024-01-15T06:56:10;1.79;118.99
584;HTU21D;27024;54.068;12.116;2024-01-15T06:58:37;1.72;118.99
584;HTU21D;27024;54.068;12.116;2024-01-15T07:01:04;1.65;118.99
584;HTU21D;27024;54.068;12.116;2024-01-15T07:03:31;1.64;118.99
584;HTU21D;27024;54.068;12.116;2024-01-15T07:05:59;1.54;118.99
584;HTU21D;27024;54.068;12.116;2024-01-15T07:08:26;1.60;118.99
584;HTU21D;27024;54.068;12.116;2024-01-15T07:10:53;1.52;118.99
584;HTU21D;27024;54.068;12.116;2024-01-15T07:13:20;1.62;118.99
584;HTU21D;27024;54.068;12.116;2024-01-15T07:15:47;1.73;118.99
584;HTU21D;27024;54.068;12.116;2024-01-15T07:18:14;1.61;118.99
584;HTU21D;27024;54.068;12.116;2024-01-15T07:20:41;1.60;118.99
584;HTU21D;27024;54.068;12.116;2024-01-15T07:23:08;1.61;118.99
584;HTU21D;27024;54.068;12.116;2024-01-15T07:25:35;1.64;118.99
584;HTU21D;27024;54.068;12.116;2024-01-15T07:28:04;1.65;118.99
584;HTU21D;27024;54.068;12.116;2024-01-15T07:30:31;1.65;118.99
584;HTU21D;27024;54.068;12.116;2024-01-15T07:32:58;1.62;118.99
584;HTU21D;27024;54.068;12.116;2024-01-15T07:35:25;1.64;118.99
584;HTU21D;27024;54.068;12.116;2024-01-15T07:37:53;1.61;118.99
584;HTU21D;27024;54.068;12.116;2024-01-15T07:40:20;1.66;118.99
584;HTU21D;27024;54.068;12.116;2024-01-15T07:42:47;1.63;118.99
584;HTU21D;27024;54.068;12.116;2024-01-15T07:45:14;1.66;118.99
584;HTU21D;27024;54.068;12.116;2024-01-15T07:47:41;1.65;118.99
584;HTU21D;27024;54.068;12.116;2024-01-15T07:50:09;1.52;118.99
584;HTU21D;27024;54.068;12.116;2024-01-15T07:52:36;1.56;118.99
584;HTU21D;27024;54.068;12.116;2024-01-15T07:55:03;1.64;118.99
584;HTU21D;27024;54.068;12.116;2024-01-15T07:57:32;1.60;118.99
584;HTU21D;27024;54.068;12.116;2024-01-15T07:59:59;1.58;118.99
584;HTU21D;27024;54.068;12.116;2024-01-15T08:02:26;1.62;118.99
584;HTU21D;27024;54.068;12.116;2024-01-15T08:04:53;1.80;118.99
584;HTU21D;27024;54.068;12.116;2024-01-15T08:07:20;1.62;118.99
584;HTU21D;27024;54.068;12.116;2024-01-15T08:09:47;1.61;118.99
584;HTU21D;27024;54.068;12.116;2024-01-15T08:12:16;1.50;118.99
584;HTU21D;27024;54.068;12.116;2024-01-15T08:14:42;1.42;118.99
584;HTU21D;27024;54.068;12.116;2024-01-15T08:17:09;1.49;118.99
584;HTU21D;27024;54.068;12.116;2024-01-15T08:19:36;1.51;118.99
584;HTU21D;27024;54.068;12.116;2024-01-15T08:22:03;1.55;118.99
584;HTU21D;27024;54.068;12.116;2024-01-15T08:24:31;1.46;118.99
584;HTU21D;27024;54.068;12.116;2024-01-15T08:26:58;1.53;118.99
584;HTU21D;27024;54.068;12.116;2024-01-15T08:29:25;1.57;118.99
584;HTU21D;27024;54.068;12.116;2024-01-15T08:31:53;1.56;118.99
584;HTU21D;27024;54.068;12.116;2024-01-15T08:34:20;1.52;118.99
584;HTU21D;27024;54.068;12.116;2024-01-15T08:36:47;1.50;118.99
584;HTU21D;27024;54.068;12.116;2024-01-15T08:39:14;1.37;118.99
584;HTU21D;27024;54.068;12.116;2024-01-15T08:41:42;1.36;118.99
584;HTU21D;27024;54.068;12.116;2024-01-15T08:44:09;1.23;118.99
584;HTU21D;27024;54.068;12.116;2024-01-15T08:46:36;1.48;118.99
584;HTU21D;27024;54.068;12.116;2024-01-15T08:49:04;1.41;118.99
584;HTU21D;27024;54.068;12.116;2024-01-15T08:51:31;1.40;118.99
584;HTU21D;27024;54.068;12.116;2024-01-15T08:53:58;1.43;118.99
584;HTU21D;27024;54.068;12.116;2024-01-15T08:56:25;1.45;118.99
584;HTU21D;27024;54.068;12.116;2024-01-15T08:58:54;1.42;118.99
584;HTU21D;27024;54.068;12.116;2024-01-15T09:01:21;1.40;118.99
584;HTU21D;27024;54.068;12.116;2024-01-15T09:03:48;1.38;118.99
584;HTU21D;27024;54.068;12.116;2024-01-15T09:06:15;1.29;118.99
584;HTU21D;27024;54.068;12.116;2024-01-15T09:08:42;1.43;118.99
584;HTU21D;27024;54.068;12.116;2024-01-15T09:11:09;1.37;118.99
584;HTU21D;27024;54.068;12.116;2024-01-15T09:13:36;1.41;118.99
584;HTU21D;27024;54.068;12.116;2024-01-15T09:16:04;1.46;118.99
584;HTU21D;27024;54.068;12.116;2024-01-15T09:18:31;1.38;118.99
584;HTU21D;27024;54.068;12.116;2024-01-15T09:20:59;1.47;118.99
584;HTU21D;27024;54.068;12.116;2024-01-15T09:23:26;1.38;118.99
584;HTU21D;27024;54.068;12.116;2024-01-15T09:25:55;1.42;118.99
584;HTU21D;27024;54.068;12.116;2024-01-15T09:28:22;1.46;118.99
584;HTU21D;27024;54.068;12.116;2024-01-15T09:30:49;1.46;118.99
584;HTU21D;27024;54.068;12.116;2024-01-15T09:33:17;1.42;118.99
584;HTU21D;27024;54.068;12.116;2024-01-15T09:35:44;1.40;118.99
584;HTU21D;27024;54.068;12.116;2024-01-15T09:38:12;1.47;118.99
584;HTU21D;27024;54.068;12.116;2024-01-15T09:40:43;1.53;118.99
584;HTU21D;27024;54.068;12.116;2024-01-15T09:43:12;1.51;118.99
584;HTU21D;27024;54.068;12.116;2024-01-15T09:45:40;1.51;118.99
584;HTU21D;27024;54.068;12.116;2024-01-15T09:48:08;1.55;118.99
584;HTU21D;27024;54.068;12.116;2024-01-15T09:50:36;1.52;118.99
584;HTU21D;27024;54.068;12.116;2024-01-15T09:53:05;1.58;118.99
584;HTU21D;27024;54.068;12.116;2024-01-15T09:55:32;1.54;118.99
584;HTU21D;27024;54.068;12.116;2024-01-15T09:58:00;1.54;118.99
584;HTU21D;27024;54.068;12.116;2024-01-15T10:00:29;1.42;118.99
584;HTU21D;27024;54.068;12.116;2024-01-15T10:02:58;1.38;118.99
584;HTU21D;27024;54.068;12.116;2024-01-15T10:05:27;1.43;118.99
584;HTU21D;27024;54.068;12.116;2024-01-15T10:07:56;1.36;118.99
584;HTU21D;27024;54.068;12.116;2024-01-15T10:10:24;1.50;118.99
584;HTU21D;27024;54.068;12.116;2024-01-15T10:12:51;1.47;118.99
584;HTU21D;27024;54.068;12.116;2024-01-15T10:15:22;1.39;118.99
584;HTU21D;27024;54.068;12.116;2024-01-15T10:17:50;1.49;118.99
584;HTU21D;27024;54.068;12.116;2024-01-15T10:20:20;1.53;118.99
584;HTU21D;27024;54.068;12.116;2024-01-15T10:22:50;1.57;118.99
584;HTU21D;27024;54.068;12.116;2024-01-15T10:25:17;1.65;118.99
584;HTU21D;27024;54.068;12.116;2024-01-15T10:28:01;1.64;118.99
584;HTU21D;27024;54.068;12.116;2024-01-15T10:30:30;1.66;118.99
584;HTU21D;27024;54.068;12.116;2024-01-15T10:33:03;1.71;118.99
584;HTU21D;27024;54.068;12.116;2024-01-15T10:35:32;1.67;118.99
584;HTU21D;27024;54.068;12.116;2024-01-15T10:38:00;1.65;118.99
584;HTU21D;27024;54.068;12.116;2024-01-15T10:40:28;1.77;118.99
584;HTU21D;27024;54.068;12.116;2024-01-15T10:42:55;1.61;118.99
584;HTU21D;27024;54.068;12.116;2024-01-15T10:45:22;1.53;118.99
584;HTU21D;27024;54.068;12.116;2024-01-15T10:47:49;1.49;118.99
584;HTU21D;27024;54.068;12.116;2024-01-15T10:50:16;1.61;118.99
584;HTU21D;27024;54.068;12.116;2024-01-15T10:52:44;1.58;118.99
584;HTU21D;27024;54.068;12.116;2024-01-15T10:55:11;1.52;118.99
584;HTU21D;27024;54.068;12.116;2024-01-15T10:57:48;1.63;118.99
584;HTU21D;27024;54.068;12.116;2024-01-15T11:00:16;1.69;118.99
584;HTU21D;27024;54.068;12.116;2024-01-15T11:02:44;1.77;118.99
584;HTU21D;27024;54.068;12.116;2024-01-15T11:05:11;1.91;118.99
584;HTU21D;27024;54.068;12.116;2024-01-15T11:07:40;1.73;118.99
584;HTU21D;27024;54.068;12.116;2024-01-15T11:10:44;1.62;118.99
584;HTU21D;27024;54.068;12.116;2024-01-15T11:13:22;1.57;118.99
584;HTU21D;27024;54.068;12.116;2024-01-15T11:16:08;1.48;118.99
584;HTU21D;27024;54.068;12.116;2024-01-15T11:21:26;1.52;118.99
584;HTU21D;27024;54.068;12.116;2024-01-15T11:23:59;1.62;118.99
584;HTU21D;27024;54.068;12.116;2024-01-15T11:29:05;1.49;118.99
584;HTU21D;27024;54.068;12.116;2024-01-15T11:34:07;1.52;118.99
584;HTU21D;27024;54.068;12.116;2024-01-15T11:41:59;1.53;118.99
584;HTU21D;27024;54.068;12.116;2024-01-15T11:44:26;1.38;118.99
584;HTU21D;27024;54.068;12.116;2024-01-15T11:46:57;1.36;118.99
584;HTU21D;27024;54.068;12.116;2024-01-15T11:52:19;1.29;118.99
584;HTU21D;27024;54.068;12.116;2024-01-15T11:57:40;1.23;118.99
584;HTU21D;27024;54.068;12.116;2024-01-15T12:00:09;1.21;118.99
584;HTU21D;27024;54.068;12.116;2024-01-15T12:02:36;1.22;118.99
584;HTU21D;27024;54.068;12.116;2024-01-15T12:05:04;1.10;118.99
584;HTU21D;27024;54.068;12.116;2024-01-15T12:07:31;1.13;118.99
584;HTU21D;27024;54.068;12.116;2024-01-15T12:09:58;1.14;118.99
584;HTU21D;27024;54.068;12.116;2024-01-15T12:15:19;1.28;118.99
584;HTU21D;27024;54.068;12.116;2024-01-15T12:17:46;1.27;118.99
584;HTU21D;27024;54.068;12.116;2024-01-15T12:20:14;1.11;118.99
584;HTU21D;27024;54.068;12.116;2024-01-15T12:22:42;0.98;118.99
584;HTU21D;27024;54.068;12.116;2024-01-15T12:25:26;1.05;118.99
584;HTU21D;27024;54.068;12.116;2024-01-15T12:27:55;1.01;118.99
584;HTU21D;27024;54.068;12.116;2024-01-15T12:30:22;1.19;118.99
584;HTU21D;27024;54.068;12.116;2024-01-15T12:32:53;1.03;118.99
584;HTU21D;27024;54.068;12.116;2024-01-15T12:35:20;1.09;118.99
584;HTU21D;27024;54.068;12.116;2024-01-15T12:37:47;1.07;118.99
584;HTU21D;27024;54.068;12.116;2024-01-15T12:40:19;1.10;118.99
584;HTU21D;27024;54.068;12.116;2024-01-15T12:42:46;0.95;118.99
584;HTU21D;27024;54.068;12.116;2024-01-15T12:45:14;1.07;118.99
584;HTU21D;27024;54.068;12.116;2024-01-15T12:47:42;1.05;118.99
584;HTU21D;27024;54.068;12.116;2024-01-15T12:50:10;0.96;118.99
584;HTU21D;27024;54.068;12.116;2024-01-15T12:52:45;0.99;118.99
584;HTU21D;27024;54.068;12.116;2024-01-15T12:55:13;0.87;118.99
584;HTU21D;27024;54.068;12.116;2024-01-15T12:57:42;0.93;118.99
584;HTU21D;27024;54.068;12.116;2024-01-15T13:00:09;0.90;118.99
584;HTU21D;27024;54.068;12.116;2024-01-15T13:02:42;0.91;118.99
584;HTU21D;27024;54.068;12.116;2024-01-15T13:05:11;0.98;118.99
584;HTU21D;27024;54.068;12.116;2024-01-15T13:07:41;0.89;118.99
584;HTU21D;27024;54.068;12.116;2024-01-15T13:10:10;0.94;118.99
584;HTU21D;27024;54.068;12.116;2024-01-15T13:12:38;0.90;118.99
584;HTU21D;27024;54.068;12.116;2024-01-15T13:15:06;0.92;118.99
584;HTU21D;27024;54.068;12.116;2024-01-15T13:17:40;0.78;118.99
584;HTU21D;27024;54.068;12.116;2024-01-15T13:20:07;0.79;118.99
584;HTU21D;27024;54.068;12.116;2024-01-15T13:22:36;0.64;118.99
584;HTU21D;27024;54.068;12.116;2024-01-15T13:25:06;0.76;118.99
584;HTU21D;27024;54.068;12.116;2024-01-15T13:27:35;0.75;118.99
584;HTU21D;27024;54.068;12.116;2024-01-15T13:30:03;0.72;118.99
584;HTU21D;27024;54.068;12.116;2024-01-15T13:32:31;0.65;118.99
584;HTU21D;27024;54.068;12.116;2024-01-15T13:34:59;0.64;118.99
584;HTU21D;27024;54.068;12.116;2024-01-15T13:37:27;0.53;118.99
584;HTU21D;27024;54.068;12.116;2024-01-15T13:39:54;0.53;118.99
584;HTU21D;27024;54.068;12.116;2024-01-15T13:42:23;0.47;118.99
584;HTU21D;27024;54.068;12.116;2024-01-15T13:44:50;0.46;118.99
584;HTU21D;27024;54.068;12.116;2024-01-15T13:47:18;0.47;118.99
584;HTU21D;27024;54.068;12.116;2024-01-15T13:49:45;0.50;118.99
584;HTU21D;27024;54.068;12.116;2024-01-15T13:52:13;0.45;118.99
584;HTU21D;27024;54.068;12.116;2024-01-15T13:54:40;0.55;118.99
584;HTU21D;27024;54.068;12.116;2024-01-15T13:57:16;0.46;118.99
584;HTU21D;27024;54.068;12.116;2024-01-15T13:59:45;0.62;118.99
584;HTU21D;27024;54.068;12.116;2024-01-15T14:02:12;0.60;118.99
584;HTU21D;27024;54.068;12.116;2024-01-15T14:04:43;0.49;118.99
584;HTU21D;27024;54.068;12.116;2024-01-15T14:07:10;0.40;118.99
584;HTU21D;27024;54.068;12.116;2024-01-15T14:09:37;0.50;118.99
584;HTU21D;27024;54.068;12.116;2024-01-15T14:12:05;0.43;118.99
584;HTU21D;27024;54.068;12.116;2024-01-15T14:14:33;0.37;118.99
584;HTU21D;27024;54.068;12.116;2024-01-15T14:17:00;0.43;118.99
584;HTU21D;27024;54.068;12.116;2024-01-15T14:19:27;0.46;118.99
584;HTU21D;27024;54.068;12.116;2024-01-15T14:21:57;0.33;118.99
584;HTU21D;27024;54.068;12.116;2024-01-15T14:24:25;0.40;118.99
584;HTU21D;27024;54.068;12.116;2024-01-15T14:26:52;0.40;118.99
584;HTU21D;27024;54.068;12.116;2024-01-15T14:29:19;0.28;118.99
584;HTU21D;27024;54.068;12.116;2024-01-15T14:31:49;0.34;118.99
584;HTU21D;27024;54.068;12.116;2024-01-15T14:34:17;0.27;118.99
584;HTU21D;27024;54.068;12.116;2024-01-15T14:36:45;0.23;118.99
584;HTU21D;27024;54.068;12.116;2024-01-15T14:39:13;0.22;118.99
584;HTU21D;27024;54.068;12.116;2024-01-15T14:41:41;0.14;118.99
584;HTU21D;27024;54.068;12.116;2024-01-15T14:44:09;0.16;118.99
584;HTU21D;27024;54.068;12.116;2024-01-15T14:46:36;0.24;118.99
584;HTU21D;27024;54.068;12.116;2024-01-15T14:49:04;0.24;118.99
584;HTU21D;27024;54.068;12.116;2024-01-15T14:51:31;0.28;118.99
584;HTU21D;27024;54.068;12.116;2024-01-15T14:53:58;0.27;118.99
584;HTU21D;27024;54.068;12.116;2024-01-15T14:56:26;0.28;118.99
584;HTU21D;27024;54.068;12.116;2024-01-15T14:58:53;0.19;118.99
584;HTU21D;27024;54.068;12.116;2024-01-15T15:01:20;0.21;118.99
584;HTU21D;27024;54.068;12.116;2024-01-15T15:03:47;0.16;118.99
584;HTU21D;27024;54.068;12.116;2024-01-15T15:06:14;0.19;118.99
584;HTU21D;27024;54.068;12.116;2024-01-15T15:08:43;0.18;118.99
584;HTU21D;27024;54.068;12.116;2024-01-15T15:11:10;0.19;118.99
584;HTU21D;27024;54.068;12.116;2024-01-15T15:13:37;0.21;118.99
584;HTU21D;27024;54.068;12.116;2024-01-15T15:16:12;0.28;118.99
584;HTU21D;27024;54.068;12.116;2024-01-15T15:18:41;0.16;118.99
584;HTU21D;27024;54.068;12.116;2024-01-15T15:21:10;0.22;118.99
584;HTU21D;27024;54.068;12.116;2024-01-15T15:23:38;0.24;118.99
584;HTU21D;27024;54.068;12.116;2024-01-15T15:26:05;0.22;118.99
584;HTU21D;27024;54.068;12.116;2024-01-15T15:28:32;0.22;118.99
584;HTU21D;27024;54.068;12.116;2024-01-15T15:31:05;0.16;118.99
584;HTU21D;27024;54.068;12.116;2024-01-15T15:33:35;0.15;118.99
584;HTU21D;27024;54.068;12.116;2024-01-15T15:36:03;0.16;118.99
584;HTU21D;27024;54.068;12.116;2024-01-15T15:38:33;0.23;118.99
584;HTU21D;27024;54.068;12.116;2024-01-15T15:41:01;0.10;118.99
584;HTU21D;27024;54.068;12.116;2024-01-15T15:43:28;0.17;118.99
584;HTU21D;27024;54.068;12.116;2024-01-15T15:45:56;0.05;118.99
584;HTU21D;27024;54.068;12.116;2024-01-15T15:48:27;0.06;118.99
584;HTU21D;27024;54.068;12.116;2024-01-15T15:50:55;0.03;118.99
584;HTU21D;27024;54.068;12.116;2024-01-15T15:53:23;0.03;118.99
584;HTU21D;27024;54.068;12.116;2024-01-15T15:55:51;0.09;118.99